Latest Weather Observations for Casterton

IDV60801

Issued at 9:22 pm EST Thursday 20 June 2019 (issued every 10 minutes, with the page automatically refreshed every 10 minutes)

About weather observations | Map of weather stations | Latest weather observations for VIC | Other Formats
Station Details ID: 090182 Name: CASTERTON Lat: -37.58 Lon: 141.33 Height: 130.6 m
Data from the previous 72 hours. | See also: Recent months at Casterton
Date/Time
EST
Temp
°C
App
Temp
°C
Dew
Point
°C
Rel
Hum
%
Delta-T
°C
Wind Press
QNH
hPa
Press
MSL
hPa
Rain since
9am
mm
Dir  Spd
km/h
Gust
km/h
Spd
kts
Gust
kts
20/09:00pm 2.1 0.4 2.0 99 0.0 CALM 0 0 0 0 1027.9 1028.1 0.2
20/08:30pm 3.2 1.7 3.1 99 0.0 CALM 0 0 0 0 1027.7 1028.0 0.2
20/08:00pm 3.1 1.6 2.8 98 0.1 CALM 0 0 0 0 1027.5 1027.8 0.2
20/07:30pm 3.9 2.5 3.5 97 0.2 CALM 0 0 0 0 1027.4 1027.7 0.2
20/07:00pm 4.4 2.6 3.5 94 0.4 SSW 2 6 1 3 1027.1 1027.4 0.2
20/06:30pm 5.7 3.3 4.2 90 0.6 SSW 6 7 3 4 1026.7 1027.0 0.2
20/06:00pm 7.3 4.8 4.6 83 1.2 SSW 7 9 4 5 1026.5 1026.8 0.2
20/05:30pm 8.7 5.6 5.4 80 1.5 S 11 15 6 8 1026.0 1026.3 0.2
20/05:00pm 10.5 8.2 5.9 73 2.1 SW 7 9 4 5 1025.8 1026.1 0.2
20/04:30pm 9.5 7.3 6.0 79 1.6 SW 7 9 4 5 1025.7 1026.0 0.2
20/04:00pm 8.6 5.7 4.4 75 1.8 WSW 9 11 5 6 1025.7 1026.0 0.2
20/03:30pm 11.1 7.8 4.8 65 2.9 WSW 11 15 6 8 1025.4 1025.6 0.2
20/03:00pm 10.5 8.1 5.3 70 2.4 SSW 7 11 4 6 1025.3 1025.5 0.2
20/02:30pm 11.2 8.4 5.3 67 2.7 WSW 9 11 5 6 1025.4 1025.6 0.2
20/02:00pm 9.8 6.9 4.8 71 2.2 SSW 9 13 5 7 1025.5 1025.8 0.2
20/01:30pm 10.2 7.5 5.4 72 2.2 SSE 9 13 5 7 1025.6 1025.9 0.2
20/01:00pm 10.0 7.5 5.0 71 2.3 WSW 7 13 4 7 1025.9 1026.2 0.2
20/12:30pm 10.9 9.1 7.2 78 1.8 NE 6 7 3 4 1026.3 1026.6 0.2
20/12:00pm 9.8 8.3 9.2 96 0.3 ENE 7 9 4 5 1026.6 1026.9 0.2
20/11:30am 9.0 7.6 8.9 99 0.0 ENE 6 7 3 4 1026.8 1027.1 0.2
20/11:00am 7.0 5.1 6.9 99 0.0 ENE 6 7 3 4 1026.9 1027.2 0.2
20/10:30am 5.2 3.0 5.1 99 0.0 ENE 6 6 3 3 1027.1 1027.4 0.2
20/10:00am 4.8 3.6 4.7 99 0.0 CALM 0 0 0 0 1026.9 1027.2 0.2
20/09:30am 2.7 1.1 2.6 99 0.0 CALM 0 0 0 0 1026.8 1027.1 0.2
20/09:00am 0.6 -1.3 0.5 99 0.0 CALM 0 0 0 0 1026.7 1027.0 0.0
20/08:30am -0.9 -3.0 -1.0 99 0.0 CALM 0 0 0 0 1026.6 1026.9 0.0
20/08:00am -1.8 -4.0 -1.9 99 0.0 CALM 0 0 0 0 1026.5 1026.8 0.0
20/07:30am -1.9 -4.2 -2.0 99 -0.1 CALM 0 0 0 0 1026.4 1026.7 0.0
20/07:00am -1.4 -4.7 -1.5 99 0.0 ENE 6 7 3 4 1026.2 1026.5 0.0
20/06:30am -0.5 -2.9 -0.6 99 0.0 ENE 2 7 1 4 1025.9 1026.2 0.0
20/06:00am -0.9 -3.0 -1.0 99 0.0 CALM 0 0 0 0 1025.8 1026.1 0.0
20/05:30am -0.3 -2.3 -0.4 99 0.0 CALM 0 0 0 0 1025.6 1025.9 0.0
20/05:00am -0.9 -3.0 -1.0 99 0.0 CALM 0 0 0 0 1025.6 1025.9 0.0
20/04:30am -0.6 -2.7 -0.7 99 0.0 CALM 0 0 0 0 1025.6 1025.9 0.0
20/04:00am 0.4 -1.5 0.3 99 0.0 CALM 0 0 0 0 1025.7 1026.0 0.0
20/03:30am -0.2 -2.2 -0.3 99 0.0 CALM 0 0 0 0 1025.8 1026.1 0.0
20/03:00am 0.2 -1.8 0.1 99 0.0 CALM 0 0 0 0 1025.9 1026.2 0.0
20/02:30am 0.0 -2.0 -0.1 99 0.0 CALM 0 0 0 0 1026.0 1026.3 0.0
20/02:00am 0.5 -1.4 0.4 99 0.0 CALM 0 0 0 0 1025.9 1026.2 0.0
20/01:30am 0.3 -1.7 0.2 99 0.0 CALM 0 0 0 0 1025.9 1026.2 0.0
20/01:00am 1.3 -0.5 1.2 99 0.0 CALM 0 0 0 0 1025.9 1026.2 0.0
20/12:30am 0.9 -1.0 0.8 99 0.0 CALM 0 0 0 0 1026.2 1026.5 0.0
20/12:00am 1.2 -0.6 1.1 99 0.0 CALM 0 0 0 0 1026.3 1026.6 0.0
 
Date/Time
EST
Temp
°C
App
Temp
°C
Dew
Point
°C
Rel
Hum
%
Delta-T
°C
Wind Press
QNH
hPa
Press
MSL
hPa
Rain since
9am
mm
Dir  Spd
km/h
Gust
km/h
Spd
kts
Gust
kts
19/11:30pm 1.1 -0.7 1.0 99 0.0 CALM 0 0 0 0 1026.4 1026.7 0.0
19/11:00pm 2.9 1.4 2.8 99 0.0 CALM 0 0 0 0 1026.5 1026.8 0.0
19/10:30pm 1.9 0.2 1.8 99 0.0 CALM 0 0 0 0 1026.4 1026.7 0.0
19/10:00pm 3.2 1.7 3.1 99 0.0 CALM 0 0 0 0 1026.3 1026.6 0.0
19/09:30pm 2.8 1.2 2.7 99 0.0 CALM 0 0 0 0 1026.5 1026.8 0.0
19/09:00pm 3.7 2.3 3.6 99 0.0 CALM 0 0 0 0 1026.5 1026.8 0.0
19/08:30pm 3.8 2.4 3.7 99 0.0 CALM 0 0 0 0 1026.5 1026.8 0.0
19/08:00pm 4.2 2.9 4.1 99 0.0 CALM 0 0 0 0 1026.5 1026.8 0.0
19/07:30pm 4.3 3.0 4.0 98 0.1 CALM 0 0 0 0 1026.5 1026.8 0.0
19/07:00pm 5.4 4.2 4.8 96 0.3 CALM 0 0 0 0 1026.3 1026.6 0.0
19/06:30pm 6.5 4.3 5.5 93 0.4 ESE 6 7 3 4 1026.3 1026.6 0.0
19/06:00pm 7.5 6.5 5.8 89 0.8 CALM 0 0 0 0 1026.3 1026.6 0.0
19/05:30pm 7.9 5.6 5.5 85 1.1 SSE 7 11 4 6 1026.2 1026.5 0.0
19/05:00pm 8.8 7.0 5.2 78 1.6 SSW 4 7 2 4 1026.1 1026.4 0.0
19/04:30pm 9.0 6.2 5.0 76 1.8 SSW 9 11 5 6 1026.0 1026.3 0.0
19/04:00pm 9.9 6.7 5.1 72 2.2 SSE 11 15 6 8 1025.9 1026.2 0.0
19/03:30pm 10.5 7.8 5.5 71 2.3 S 9 13 5 7 1025.9 1026.2 0.0
19/03:00pm 10.2 6.7 5.4 72 2.2 SSW 13 17 7 9 1025.8 1026.1 0.0
19/02:30pm 9.5 6.6 6.4 81 1.4 SSW 11 17 6 9 1025.9 1026.2 0.0
19/02:00pm 9.6 6.3 6.5 81 1.4 S 13 17 7 9 1026.1 1026.4 0.0
19/01:30pm 11.3 9.3 7.0 75 2.1 W 7 11 4 6 1026.4 1026.7 0.0
19/01:00pm 9.7 6.8 6.4 80 1.5 SW 11 15 6 8 1026.8 1027.1 0.0
19/12:30pm 10.2 7.2 5.8 74 2.0 SSW 11 15 6 8 1027.0 1027.3 0.0
19/12:00pm 10.7 8.8 6.5 75 2.0 SW 6 9 3 5 1027.3 1027.6 0.0
19/11:30am 10.6 8.7 6.6 76 1.9 N 6 11 3 6 1027.5 1027.8 0.0
19/11:00am 9.4 7.4 6.3 81 1.4 NW 6 9 3 5 1027.7 1028.0 0.0
19/10:30am 8.8 6.7 6.6 86 1.0 WNW 7 9 4 5 1027.5 1027.8 0.0
19/10:00am 7.1 5.0 6.5 96 0.3 NW 7 11 4 6 1027.2 1027.5 0.0
19/09:30am 5.2 3.0 5.1 99 0.0 NW 6 7 3 4 1026.9 1027.2 0.0
19/09:00am 3.1 -0.1 3.0 99 0.0 NW 9 11 5 6 1026.8 1027.1 1.8
19/08:30am 1.6 -0.2 1.5 99 0.0 CALM 0 0 0 0 1026.5 1026.8 1.8
19/08:00am 0.7 -2.3 0.6 99 0.0 NW 6 7 3 4 1026.3 1026.6 1.8
19/07:30am 1.6 -0.2 1.5 99 0.0 CALM 0 0 0 0 1026.0 1026.3 1.8
19/07:00am 2.0 0.3 1.9 99 0.0 CALM 0 0 0 0 1025.7 1026.0 1.8
19/06:30am 2.9 0.0 2.8 99 0.0 NW 7 7 4 4 1025.3 1025.5 1.8
19/06:00am 3.2 0.6 3.1 99 0.0 W 6 7 3 4 1025.2 1025.4 1.8
19/05:30am 3.1 1.2 3.0 99 0.0 WSW 2 6 1 3 1025.1 1025.3 1.8
19/05:00am 2.7 -0.2 2.6 99 0.0 WNW 7 11 4 6 1025.0 1025.2 1.8
19/04:30am 3.1 -0.1 3.0 99 0.0 WNW 9 11 5 6 1024.8 1025.0 1.8
19/04:00am 3.2 0.0 3.1 99 0.0 W 9 11 5 6 1024.9 1025.1 1.8
19/03:30am 3.1 0.5 3.0 99 0.0 W 6 7 3 4 1025.1 1025.3 1.8
19/03:00am 1.9 -0.9 1.8 99 0.0 WNW 6 9 3 5 1024.9 1025.1 1.8
19/02:30am 2.1 -1.3 2.0 99 0.0 W 9 11 5 6 1024.8 1025.0 1.8
19/02:00am 1.6 -1.5 1.5 99 0.0 WNW 7 9 4 5 1024.7 1024.9 1.8
19/01:30am 1.7 -2.1 1.6 99 0.0 NW 11 13 6 7 1024.5 1024.7 1.8
19/01:00am 2.3 -0.7 2.2 99 0.0 W 7 9 4 5 1024.5 1024.7 1.8
19/12:30am 3.1 0.3 3.0 99 0.0 NW 7 9 4 5 1024.7 1024.9 1.8
19/12:00am 3.4 0.8 3.3 99 0.0 WSW 6 7 3 4 1024.8 1025.0 1.8
 
Date/Time
EST
Temp
°C
App
Temp
°C
Dew
Point
°C
Rel
Hum
%
Delta-T
°C
Wind Press
QNH
hPa
Press
MSL
hPa
Rain since
9am
mm
Dir  Spd
km/h
Gust
km/h
Spd
kts
Gust
kts
18/11:30pm 2.8 0.9 2.7 99 0.0 W 2 7 1 4 1024.8 1025.0 1.8
18/11:00pm 3.4 0.6 3.3 99 0.0 W 7 7 4 4 1024.6 1024.8 1.8
18/10:30pm 2.7 -0.2 2.6 99 0.0 NW 7 9 4 5 1024.5 1024.7 1.8
18/10:00pm 2.8 1.2 2.7 99 0.0 CALM 0 0 0 0 1024.4 1024.6 1.8
18/09:30pm 3.0 0.3 2.9 99 0.0 WSW 6 9 3 5 1024.5 1024.7 1.8
18/09:00pm 2.8 0.1 2.5 98 0.1 WNW 6 7 3 4 1024.3 1024.5 1.8
18/08:30pm 3.5 0.7 3.2 98 0.1 W 7 9 4 5 1024.0 1024.2 1.8
18/08:00pm 5.0 2.1 4.4 96 0.3 WSW 9 13 5 7 1023.8 1024.0 1.8
18/07:30pm 5.7 2.4 4.7 93 0.4 WSW 11 13 6 7 1023.6 1023.8 1.8
18/07:00pm 6.3 2.7 5.1 92 0.5 WSW 13 20 7 11 1023.4 1023.6 1.8
18/06:30pm 6.5 3.6 4.5 87 0.9 WSW 9 13 5 7 1023.2 1023.4 1.8
18/06:00pm 6.9 3.5 4.2 83 1.2 WSW 11 13 6 7 1022.8 1023.0 1.8
18/05:30pm 8.1 4.0 4.1 76 1.8 SW 15 20 8 11 1022.6 1022.8 1.8
18/05:00pm 8.7 3.6 4.1 73 2.0 SW 20 28 11 15 1022.2 1022.4 1.8
18/04:30pm 9.1 4.7 4.7 74 2.0 WSW 17 24 9 13 1022.0 1022.2 1.8
18/04:00pm 9.5 4.7 4.5 71 2.2 SW 19 30 10 16 1021.7 1021.9 1.8
18/03:30pm 10.8 6.1 5.3 69 2.5 WSW 19 28 10 15 1021.2 1021.4 1.8
18/03:00pm 10.9 6.7 5.9 71 2.3 SW 17 28 9 15 1020.9 1021.1 1.8
18/02:30pm 9.1 3.7 4.5 73 2.1 SW 22 37 12 20 1020.8 1021.0 1.8
18/02:00pm 10.4 6.4 6.5 77 1.8 SW 17 26 9 14 1020.7 1020.9 1.8
18/01:30pm 8.3 3.0 5.2 81 1.4 SW 22 50 12 27 1020.9 1021.1 1.8
18/01:00pm 8.3 3.7 5.4 82 1.3 SW 19 32 10 17 1020.6 1020.8 1.8
18/12:30pm 11.4 8.2 8.3 81 1.5 W 15 22 8 12 1020.4 1020.6 1.4
18/12:00pm 10.0 6.6 7.8 86 1.1 W 15 22 8 12 1020.7 1020.9 1.4
18/11:30am 9.1 6.1 7.7 91 0.7 WSW 13 17 7 9 1020.9 1021.1 1.4
18/11:00am 8.6 5.2 7.5 93 0.5 WSW 15 20 8 11 1020.8 1021.0 1.4
18/10:30am 8.6 5.7 8.0 96 0.3 SW 13 20 7 11 1020.3 1020.5 1.4
18/10:00am 7.3 3.0 7.2 99 0.0 WSW 19 26 10 14 1020.0 1020.2 1.4
18/09:30am 7.9 4.9 7.8 99 0.0 W 13 22 7 12 1019.3 1019.6 0.0
18/09:00am 7.1 3.6 7.0 99 0.0 W 15 20 8 11 1018.7 1018.9 5.2
18/08:30am 7.4 3.9 7.3 99 0.0 W 15 19 8 10 1018.4 1018.6 4.6
18/08:00am 7.3 4.2 7.2 99 0.0 WSW 13 19 7 10 1017.9 1018.1 4.2
18/07:30am 7.0 3.8 6.9 99 0.0 W 13 19 7 10 1017.1 1017.3 3.8
18/07:00am 7.7 4.7 7.6 99 0.0 W 13 19 7 10 1016.8 1017.0 3.8
18/06:30am 7.9 4.5 7.8 99 0.0 W 15 20 8 11 1016.3 1016.5 3.8
18/06:00am 7.6 4.2 7.5 99 0.0 W 15 19 8 10 1015.9 1016.1 3.8
18/05:30am 8.5 4.9 8.4 99 0.0 W 17 30 9 16 1015.4 1015.6 3.8
18/05:00am 9.0 5.5 8.9 99 0.0 WNW 17 30 9 16 1015.2 1015.4 3.8
18/04:30am 9.3 5.9 9.2 99 0.0 WNW 17 26 9 14 1015.0 1015.2 3.2
18/04:00am 9.2 6.2 9.1 99 0.0 WNW 15 22 8 12 1014.9 1015.1 3.2
18/03:30am 9.2 5.4 9.1 99 0.0 NW 19 30 10 16 1014.8 1015.0 3.0
18/03:00am 9.1 5.1 9.0 99 0.0 NW 20 30 11 16 1014.6 1014.8 3.0
18/02:30am 9.2 6.5 9.1 99 0.0 NW 13 17 7 9 1014.5 1014.7 2.8
18/02:00am 9.4 6.4 9.1 98 0.1 NW 15 20 8 11 1014.5 1014.7 1.4
18/01:30am 10.0 5.9 8.8 92 0.6 NW 20 30 11 16 1014.5 1014.7 0.2
18/01:00am 10.2 5.3 8.3 88 0.9 NNW 24 35 13 19 1014.5 1014.7 0.0
18/12:30am 10.9 5.8 7.8 81 1.5 NNW 24 35 13 19 1014.6 1014.8 0.0
18/12:00am 10.6 5.9 7.8 83 1.4 NNW 22 32 12 17 1014.8 1015.0 0.0
 
Date/Time
EST
Temp
°C
App
Temp
°C
Dew
Point
°C
Rel
Hum
%
Delta-T
°C
Wind Press
QNH
hPa
Press
MSL
hPa
Rain since
9am
mm
Dir  Spd
km/h
Gust
km/h
Spd
kts
Gust
kts
17/11:30pm 10.7 6.0 7.9 83 1.4 NNW 22 30 12 16 1015.1 1015.3 0.0
17/11:00pm 10.8 6.2 8.0 83 1.4 NNW 22 32 12 17 1015.3 1015.5 0.0
17/10:30pm 11.0 7.3 8.1 82 1.4 NNW 17 26 9 14 1015.6 1015.8 0.0
17/10:00pm 10.3 7.0 7.9 85 1.2 NNW 15 20 8 11 1015.8 1016.0 0.0
17/09:30pm 10.3 7.0 8.2 87 1.0 N 15 20 8 11 1016.0 1016.2 0.0

Other formats

Comma delimited format used in spreadsheet applications
http://www.bom.gov.au/fwo/IDV60801/IDV60801.95825.axf

JavaScript Object Notation format (JSON) in row-major order
http://www.bom.gov.au/fwo/IDV60801/IDV60801.95825.json

Data quality

Most of these data are generated automatically and are frequently updated. Quality checks on data are not normally performed. It is possible for incorrect values to appear. Refer to information at About Latest Weather Observations and please check the disclaimer before using these data.